createdAt,value
2019-04-07T00:00:32.689Z,44.37
2019-04-07T00:03:06.873Z,43.30
2019-04-07T00:05:48.283Z,36.90
2019-04-07T00:08:21.906Z,39.53
2019-04-07T00:10:55.809Z,37.90
2019-04-07T00:13:29.521Z,40.90
2019-04-07T00:16:03.648Z,38.23
2019-04-07T00:18:37.432Z,36.40
2019-04-07T00:21:53.996Z,39.63
2019-04-07T00:24:27.770Z,39.67
2019-04-07T00:27:06.958Z,37.73
2019-04-07T00:30:00.019Z,35.10
2019-04-07T00:32:33.838Z,35.40
2019-04-07T00:35:07.703Z,38.00
2019-04-07T00:37:55.821Z,35.43
2019-04-07T00:40:29.601Z,42.37
2019-04-07T00:43:22.123Z,39.70
2019-04-07T00:45:55.926Z,37.93
2019-04-07T00:48:29.796Z,30.47
2019-04-07T00:51:11.175Z,32.73
2019-04-07T00:53:45.433Z,36.67
2019-04-07T00:56:19.268Z,31.13
2019-04-07T00:58:53.333Z,37.70
2019-04-07T01:01:38.297Z,37.23
2019-04-07T01:04:12.248Z,40.57
2019-04-07T01:06:45.877Z,41.07
2019-04-07T01:09:27.708Z,36.60
2019-04-07T01:12:01.599Z,29.07
2019-04-07T01:14:37.888Z,32.87
2019-04-07T01:17:11.638Z,34.60
2019-04-07T01:19:45.605Z,39.67
2019-04-07T01:22:29.609Z,42.03
2019-04-07T01:25:04.985Z,39.40
2019-04-07T01:27:39.037Z,43.03
2019-04-07T01:30:19.205Z,36.03
2019-04-07T01:33:10.255Z,33.20
2019-04-07T01:35:48.201Z,33.13
2019-04-07T01:38:29.174Z,29.67
2019-04-07T01:41:21.673Z,28.30
2019-04-07T01:44:00.139Z,29.83
2019-04-07T01:52:31.911Z,29.47
2019-04-07T01:55:11.370Z,30.83
2019-04-07T01:58:02.077Z,29.27
2019-04-07T02:03:41.908Z,33.37
2019-04-07T02:06:33.220Z,38.30
2019-04-07T02:11:53.944Z,33.70
2019-04-07T02:14:40.959Z,32.03
2019-04-07T02:17:22.324Z,35.83
2019-04-07T02:20:10.324Z,34.23
2019-04-07T02:23:01.107Z,32.03
2019-04-07T02:25:37.357Z,31.97
2019-04-07T02:28:26.417Z,36.90
2019-04-07T02:31:09.777Z,38.43
2019-04-07T02:34:07.562Z,35.13
2019-04-07T02:36:55.846Z,34.97
2019-04-07T02:39:41.103Z,38.27
2019-04-07T02:42:20.270Z,41.30
2019-04-07T02:45:02.808Z,39.60
2019-04-07T02:47:41.886Z,35.93
2019-04-07T02:50:20.280Z,32.60
2019-04-07T02:53:16.682Z,36.70
2019-04-07T02:56:08.086Z,29.50
2019-04-07T02:58:59.405Z,29.90
2019-04-07T03:01:41.370Z,32.27
2019-04-07T03:04:44.285Z,36.63
2019-04-07T03:07:20.001Z,36.33
2019-04-07T03:13:02.973Z,30.60
2019-04-07T03:15:41.453Z,32.93
2019-04-07T03:18:34.433Z,26.47
2019-04-07T03:21:35.039Z,28.77
2019-04-07T03:27:17.868Z,29.30
2019-04-07T03:30:03.816Z,32.83
2019-04-07T03:32:45.465Z,34.53
2019-04-07T03:35:22.823Z,37.33
2019-04-07T03:38:15.273Z,36.10
2019-04-07T03:40:55.016Z,36.70
2019-04-07T03:43:36.621Z,37.20
2019-04-07T03:49:04.293Z,45.87
2019-04-07T03:51:55.866Z,50.70
2019-04-07T03:54:31.658Z,44.20
2019-04-07T03:57:07.103Z,42.80
2019-04-07T03:59:55.421Z,43.20
2019-04-07T04:02:48.388Z,43.13
2019-04-07T04:05:32.846Z,46.50
2019-04-07T04:08:09.446Z,45.77
2019-04-07T04:11:04.202Z,42.30
2019-04-07T04:13:42.453Z,43.70
2019-04-07T04:16:16.059Z,45.93
2019-04-07T04:19:02.832Z,44.50
2019-04-07T04:21:36.594Z,48.90
2019-04-07T04:24:26.632Z,48.90
2019-04-07T04:27:00.994Z,48.37
2019-04-07T04:29:37.852Z,51.83
2019-04-07T04:32:11.505Z,50.53
2019-04-07T04:34:57.534Z,46.20
2019-04-07T04:37:40.417Z,37.90
2019-04-07T04:40:07.804Z,36.63
2019-04-07T04:43:09.024Z,33.33
2019-04-07T04:45:42.925Z,31.03
2019-04-07T04:48:17.258Z,30.70
2019-04-07T04:50:51.097Z,33.07
2019-04-07T04:53:24.708Z,36.83
2019-04-07T04:56:00.955Z,38.00
2019-04-07T04:58:34.947Z,42.20
2019-04-07T05:01:10.693Z,35.53
2019-04-07T05:03:44.431Z,38.87
2019-04-07T05:06:21.356Z,34.40
2019-04-07T05:08:54.939Z,38.30
2019-04-07T05:11:29.318Z,39.17
2019-04-07T05:14:11.391Z,38.67
2019-04-07T05:16:45.010Z,38.97
2019-04-07T05:19:19.342Z,41.10
2019-04-07T05:21:53.214Z,37.13
2019-04-07T05:24:26.898Z,34.03
2019-04-07T05:27:01.004Z,36.57
2019-04-07T05:29:42.174Z,39.73
2019-04-07T05:32:15.840Z,36.73
2019-04-07T05:34:50.454Z,42.30
2019-04-07T05:37:25.333Z,37.27
2019-04-07T05:39:59.149Z,38.13
2019-04-07T05:42:32.857Z,36.60
2019-04-07T05:45:07.402Z,35.70
2019-04-07T05:47:47.326Z,34.47
2019-04-07T05:50:20.084Z,35.53
2019-04-07T05:52:54.355Z,41.13
2019-04-07T05:55:28.128Z,37.73
2019-04-07T05:58:11.976Z,43.83
2019-04-07T06:00:48.016Z,45.67
2019-04-07T06:03:22.714Z,45.03
2019-04-07T06:05:58.390Z,44.13
2019-04-07T06:08:37.664Z,51.90
2019-04-07T06:11:11.447Z,48.77
2019-04-07T06:13:45.563Z,52.37
2019-04-07T06:16:41.679Z,48.40
2019-04-07T06:19:16.064Z,44.13
2019-04-07T06:21:57.987Z,46.57
2019-04-07T06:24:34.001Z,44.37
2019-04-07T06:27:10.061Z,42.20
2019-04-07T06:29:43.728Z,42.37
2019-04-07T06:32:17.749Z,44.47
2019-04-07T06:35:05.161Z,41.67
2019-04-07T06:37:39.737Z,38.57
2019-04-07T06:40:13.954Z,38.90
2019-04-07T06:42:48.913Z,39.80
2019-04-07T06:45:44.214Z,38.67
2019-04-07T06:48:17.824Z,34.40
2019-04-07T06:50:58.319Z,31.82
2019-04-07T06:53:35.626Z,29.65
2019-04-07T06:56:17.522Z,30.52
2019-04-07T06:59:13.890Z,29.00
2019-04-07T07:01:49.297Z,27.05
2019-04-07T07:04:31.404Z,25.17
2019-04-07T07:07:36.411Z,30.08
2019-04-07T07:10:26.141Z,30.30
2019-04-07T07:13:00.114Z,26.57
2019-04-07T07:18:54.659Z,25.50
2019-04-07T07:21:31.503Z,24.65
2019-04-07T07:24:29.609Z,26.40
2019-04-07T07:27:07.096Z,27.87
2019-04-07T07:29:52.554Z,23.57
2019-04-07T07:32:24.882Z,25.57
2019-04-07T07:34:59.687Z,23.57
2019-04-07T07:37:34.152Z,26.55
2019-04-07T07:40:09.820Z,21.90
2019-04-07T07:42:45.834Z,27.70
2019-04-07T07:45:20.414Z,23.22
2019-04-07T07:47:55.478Z,21.52
2019-04-07T07:50:29.991Z,20.87
2019-04-07T07:53:04.734Z,24.52
2019-04-07T07:55:47.661Z,23.50
2019-04-07T07:58:21.903Z,22.70
2019-04-07T08:00:56.862Z,23.73
2019-04-07T08:03:31.765Z,22.85
2019-04-07T08:06:08.240Z,21.57
2019-04-07T08:08:45.161Z,24.32
2019-04-07T08:11:17.748Z,21.00
2019-04-07T08:13:52.489Z,20.70
2019-04-07T08:16:29.468Z,21.02
2019-04-07T08:19:02.857Z,22.73
2019-04-07T08:21:41.285Z,23.20
2019-04-07T08:24:18.527Z,21.68
2019-04-07T08:26:57.187Z,23.07
2019-04-07T08:29:30.953Z,22.77
2019-04-07T08:32:17.643Z,20.93
2019-04-07T08:34:51.586Z,20.63
2019-04-07T08:37:29.628Z,20.67
2019-04-07T08:40:07.278Z,19.83
2019-04-07T08:42:48.484Z,17.60
2019-04-07T08:45:23.086Z,19.23
2019-04-07T08:48:12.414Z,21.17
2019-04-07T08:50:46.437Z,22.10
2019-04-07T08:53:49.597Z,20.47
2019-04-07T08:56:26.250Z,17.97
2019-04-07T08:58:59.402Z,25.67
2019-04-07T09:01:42.473Z,22.50
2019-04-07T09:04:19.273Z,18.93
2019-04-07T09:06:53.759Z,19.57
2019-04-07T09:09:33.849Z,19.43
2019-04-07T09:12:03.430Z,19.80
2019-04-07T09:14:39.741Z,19.87
2019-04-07T09:17:38.499Z,18.50
2019-04-07T09:20:10.432Z,19.80
2019-04-07T09:22:51.526Z,16.23
2019-04-07T09:25:35.841Z,16.33
2019-04-07T09:28:23.965Z,17.77
2019-04-07T09:31:02.921Z,19.50
2019-04-07T09:33:52.805Z,22.87
2019-04-07T09:36:40.669Z,26.53
2019-04-07T09:39:18.860Z,23.07
2019-04-07T09:42:00.836Z,16.30
2019-04-07T09:44:40.215Z,15.80
2019-04-07T09:47:33.256Z,14.57
2019-04-07T09:50:15.176Z,12.77
2019-04-07T09:52:54.011Z,15.40
2019-04-07T09:55:29.988Z,15.80
2019-04-07T09:58:23.842Z,14.80
2019-04-07T10:01:02.338Z,11.90
2019-04-07T10:04:07.101Z,13.83
2019-04-07T10:06:55.078Z,13.17
2019-04-07T10:09:33.626Z,12.70
2019-04-07T10:12:27.776Z,14.07
2019-04-07T10:15:08.349Z,17.40
2019-04-07T10:17:47.123Z,11.60
2019-04-07T10:20:29.282Z,16.23
2019-04-07T10:23:38.701Z,13.17
2019-04-07T10:26:29.144Z,12.53
2019-04-07T10:29:20.561Z,18.00
2019-04-07T10:37:52.078Z,12.23
2019-04-07T10:40:45.391Z,11.80
2019-04-07T10:43:21.077Z,12.57
2019-04-07T10:46:00.803Z,15.33
2019-04-07T10:48:36.689Z,13.07
2019-04-07T10:51:31.007Z,19.70
2019-04-07T10:54:08.156Z,20.62
2019-04-07T10:57:03.272Z,19.65
2019-04-07T10:59:41.959Z,17.82
2019-04-07T11:02:34.115Z,17.45
2019-04-07T11:05:14.123Z,21.27
2019-04-07T11:07:50.476Z,21.87
2019-04-07T11:10:41.921Z,20.20
2019-04-07T11:13:18.590Z,16.62
2019-04-07T11:16:10.919Z,19.00
2019-04-07T11:18:56.563Z,19.87
2019-04-07T11:24:47.122Z,17.35
2019-04-07T11:27:31.873Z,16.10
2019-04-07T11:33:13.564Z,15.40
2019-04-07T11:35:53.198Z,18.32
2019-04-07T11:38:35.373Z,18.55
2019-04-07T11:41:46.032Z,19.82
2019-04-07T11:47:30.415Z,17.85
2019-04-07T11:50:18.970Z,23.90
2019-04-07T11:53:01.831Z,19.37
2019-04-07T11:55:37.787Z,19.40
2019-04-07T11:58:17.750Z,20.92
2019-04-07T12:00:58.097Z,18.40
2019-04-07T12:03:37.558Z,23.25
2019-04-07T12:09:14.094Z,18.98
2019-04-07T12:12:09.526Z,16.93
2019-04-07T12:14:53.310Z,23.50
2019-04-07T12:17:29.977Z,19.95
2019-04-07T12:20:09.658Z,20.32
2019-04-07T12:22:48.041Z,23.30
2019-04-07T12:25:33.470Z,23.25
2019-04-07T12:31:02.559Z,26.25
2019-04-07T12:33:48.588Z,24.55
2019-04-07T12:36:40.975Z,23.92
2019-04-07T12:39:20.154Z,24.18
2019-04-07T12:42:04.433Z,22.30
2019-04-07T12:44:59.772Z,23.55
2019-04-07T12:47:47.587Z,24.15
2019-04-07T12:50:39.730Z,24.10
2019-04-07T12:53:33.496Z,23.10
2019-04-07T12:56:22.116Z,21.95
2019-04-07T12:59:18.294Z,20.02
2019-04-07T13:02:03.215Z,24.47
2019-04-07T13:04:36.526Z,20.02
2019-04-07T13:07:17.725Z,21.17
2019-04-07T13:10:07.403Z,21.07
2019-04-07T13:12:57.952Z,22.58
2019-04-07T13:15:58.169Z,26.62
2019-04-07T13:18:50.021Z,25.00
2019-04-07T13:21:48.075Z,25.68
2019-04-07T13:24:44.665Z,20.95
2019-04-07T13:30:15.927Z,20.25
2019-04-07T13:32:55.434Z,23.15
2019-04-07T13:35:35.272Z,22.07
2019-04-07T13:38:12.161Z,24.65
2019-04-07T13:41:07.190Z,24.67
2019-04-07T13:44:17.168Z,18.87
2019-04-07T13:47:06.367Z,23.30
2019-04-07T13:49:59.553Z,27.93
2019-04-07T13:52:55.365Z,28.30
2019-04-07T13:55:30.582Z,24.60
2019-04-07T13:58:09.706Z,24.55
2019-04-07T14:00:47.792Z,22.65
2019-04-07T14:03:38.086Z,26.87
2019-04-07T14:06:43.623Z,23.67
2019-04-07T14:09:33.163Z,22.70
2019-04-07T14:12:13.855Z,24.00
2019-04-07T14:15:05.204Z,26.10
2019-04-07T14:17:44.776Z,28.25
2019-04-07T14:20:34.621Z,23.05
2019-04-07T14:23:17.536Z,25.45
2019-04-07T14:26:05.738Z,26.50
2019-04-07T14:28:57.656Z,25.55
2019-04-07T14:31:50.158Z,28.50
2019-04-07T14:34:42.199Z,27.70
2019-04-07T14:37:37.281Z,24.12
2019-04-07T14:40:25.227Z,24.43
2019-04-07T14:43:01.166Z,28.10
2019-04-07T14:45:40.646Z,24.25
2019-04-07T14:48:17.359Z,22.40
2019-04-07T14:51:48.235Z,23.87
2019-04-07T14:54:37.920Z,23.05
2019-04-07T15:00:17.263Z,26.70
2019-04-07T15:02:51.563Z,24.67
2019-04-07T15:05:31.019Z,25.70
2019-04-07T15:08:07.044Z,25.23
2019-04-07T15:10:42.935Z,19.90
2019-04-07T15:13:21.303Z,21.68
2019-04-07T15:15:54.795Z,23.87
2019-04-07T15:18:31.560Z,23.35
2019-04-07T15:21:06.736Z,23.75
2019-04-07T15:23:43.777Z,25.85
2019-04-07T15:26:17.941Z,23.22
2019-04-07T15:28:52.408Z,25.45
2019-04-07T15:31:26.586Z,32.33
2019-04-07T15:34:04.102Z,27.25
2019-04-07T15:36:37.546Z,26.95
2019-04-07T15:39:28.051Z,27.90
2019-04-07T15:42:00.963Z,28.32
2019-04-07T15:44:39.083Z,25.55
2019-04-07T15:47:15.253Z,31.05
2019-04-07T15:49:49.601Z,25.92
2019-04-07T15:52:23.786Z,29.72
2019-04-07T15:55:02.128Z,27.62
2019-04-07T15:57:37.196Z,29.40
2019-04-07T16:00:12.369Z,27.25
2019-04-07T16:03:00.315Z,26.55
2019-04-07T16:05:40.401Z,27.15
2019-04-07T16:08:14.599Z,27.87
2019-04-07T16:10:48.859Z,27.13
2019-04-07T16:13:23.889Z,23.07
2019-04-07T16:15:58.196Z,24.52
2019-04-07T16:18:40.286Z,26.77
2019-04-07T16:21:14.694Z,23.32
2019-04-07T16:23:52.669Z,24.52
2019-04-07T16:26:26.119Z,26.23
2019-04-07T16:29:01.251Z,29.98
2019-04-07T16:31:45.170Z,29.60
2019-04-07T16:34:19.388Z,27.90
2019-04-07T16:37:15.921Z,27.98
2019-04-07T16:39:50.282Z,27.70
2019-04-07T16:42:25.208Z,31.90
2019-04-07T16:44:59.759Z,26.40
2019-04-07T16:47:42.204Z,28.47
2019-04-07T16:50:18.902Z,33.25
2019-04-07T16:52:53.259Z,31.07
2019-04-07T16:55:50.616Z,30.17
2019-04-07T16:58:22.555Z,27.77
2019-04-07T17:01:17.412Z,28.85
2019-04-07T17:03:51.814Z,28.80
2019-04-07T17:06:29.826Z,26.15
2019-04-07T17:09:08.716Z,28.80
2019-04-07T17:11:43.195Z,29.30
2019-04-07T17:14:18.408Z,30.10
2019-04-07T17:17:07.846Z,31.40
2019-04-07T17:19:42.028Z,31.23
2019-04-07T17:22:21.996Z,30.05
2019-04-07T17:25:00.346Z,31.30
2019-04-07T17:27:32.621Z,31.87
2019-04-07T17:30:39.013Z,31.05
2019-04-07T17:33:14.056Z,32.15
2019-04-07T17:35:52.209Z,38.48
2019-04-07T17:38:45.647Z,33.90
2019-04-07T17:41:20.198Z,33.13
2019-04-07T17:43:59.122Z,30.72
2019-04-07T17:46:36.452Z,29.18
2019-04-07T17:52:29.982Z,36.15
2019-04-07T17:55:27.146Z,31.50
2019-04-07T17:58:07.222Z,33.65
2019-04-07T18:00:54.914Z,30.95
2019-04-07T18:03:31.378Z,35.92
2019-04-07T18:09:52.364Z,34.23
2019-04-07T18:12:47.860Z,34.17
2019-04-07T18:15:41.176Z,35.50
2019-04-07T18:21:19.827Z,34.20
2019-04-07T18:23:58.276Z,36.30
2019-04-07T18:29:36.593Z,37.07
2019-04-07T18:32:12.152Z,36.40
2019-04-07T18:35:00.026Z,35.80
2019-04-07T18:37:52.502Z,37.40
2019-04-07T18:40:45.489Z,35.90
2019-04-07T18:43:21.512Z,36.97
2019-04-07T18:46:29.330Z,40.17
2019-04-07T18:49:16.934Z,43.30
2019-04-07T18:51:56.916Z,41.23
2019-04-07T18:54:47.979Z,44.90
2019-04-07T18:57:36.039Z,39.43
2019-04-07T19:00:32.343Z,40.53
2019-04-07T19:03:10.615Z,42.37
2019-04-07T19:05:46.078Z,40.67
2019-04-07T19:08:33.762Z,42.63
2019-04-07T19:17:30.281Z,33.93
2019-04-07T19:20:24.775Z,32.20
2019-04-07T19:27:17.719Z,35.10
2019-04-07T19:30:04.689Z,33.07
2019-04-07T19:32:43.015Z,34.17
2019-04-07T19:35:40.914Z,30.60
2019-04-07T19:38:23.516Z,31.47
2019-04-07T19:41:15.529Z,37.03
2019-04-07T19:43:56.834Z,38.80
2019-04-07T19:46:48.723Z,40.40
2019-04-07T19:49:27.262Z,43.57
2019-04-07T19:52:39.527Z,36.50
2019-04-07T19:55:15.107Z,45.27
2019-04-07T19:58:07.570Z,42.00
2019-04-07T20:00:43.705Z,38.00
2019-04-07T20:06:32.537Z,37.43
2019-04-07T20:09:28.265Z,35.00
2019-04-07T20:12:04.293Z,32.63
2019-04-07T20:15:01.380Z,38.97
2019-04-07T20:17:50.547Z,37.27
2019-04-07T20:20:30.259Z,36.10
2019-04-07T20:23:08.662Z,38.40
2019-04-07T20:25:53.045Z,39.20
2019-04-07T20:28:32.483Z,44.10
2019-04-07T20:31:05.822Z,43.93
2019-04-07T20:33:56.864Z,42.53
2019-04-07T20:36:35.907Z,36.47
2019-04-07T20:39:34.181Z,36.10
2019-04-07T20:42:08.832Z,35.60
2019-04-07T20:44:45.906Z,38.37
2019-04-07T20:47:44.570Z,36.90
2019-04-07T20:50:35.545Z,43.20
2019-04-07T20:53:16.738Z,35.60
2019-04-07T20:56:00.364Z,38.67
2019-04-07T20:58:56.684Z,43.43
2019-04-07T21:05:18.650Z,43.23
2019-04-07T21:08:06.211Z,45.07
2019-04-07T21:10:53.892Z,45.80
2019-04-07T21:13:38.332Z,48.13
2019-04-07T21:19:27.623Z,44.67
2019-04-07T21:22:03.424Z,54.27
2019-04-07T21:24:58.686Z,54.10
2019-04-07T21:27:40.846Z,52.40
2019-04-07T21:30:25.389Z,53.10
2019-04-07T21:33:17.401Z,56.27
2019-04-07T21:41:56.295Z,53.10
2019-04-07T21:44:54.138Z,46.53
2019-04-07T21:47:41.729Z,56.43
2019-04-07T21:50:30.179Z,51.50
2019-04-07T21:53:30.363Z,52.30
2019-04-07T21:56:20.158Z,39.57
2019-04-07T21:59:18.657Z,43.80
2019-04-07T22:02:12.623Z,42.43
2019-04-07T22:04:53.211Z,39.67
2019-04-07T22:07:46.525Z,43.23
2019-04-07T22:10:21.661Z,42.37
2019-04-07T22:12:59.414Z,45.47
2019-04-07T22:15:42.122Z,45.47
2019-04-07T22:18:08.537Z,46.90
2019-04-07T22:20:41.631Z,44.07
2019-04-07T22:23:15.249Z,44.27
2019-04-07T22:25:52.252Z,47.13
2019-04-07T22:28:30.275Z,46.63
2019-04-07T22:31:04.504Z,48.20
2019-04-07T22:33:47.640Z,48.90
2019-04-07T22:36:21.343Z,47.87
2019-04-07T22:39:02.080Z,41.03
2019-04-07T22:41:36.992Z,43.50
2019-04-07T22:44:11.321Z,39.77
2019-04-07T22:46:51.264Z,47.10
2019-04-07T22:49:28.555Z,44.80
2019-04-07T22:51:59.874Z,47.37
2019-04-07T22:54:38.956Z,56.80
2019-04-07T22:57:15.077Z,52.90
2019-04-07T22:59:48.294Z,48.90
2019-04-07T23:02:22.147Z,50.73
2019-04-07T23:04:55.756Z,51.50
2019-04-07T23:07:29.695Z,51.73
2019-04-07T23:10:03.632Z,49.93
2019-04-07T23:12:49.899Z,53.70
2019-04-07T23:15:35.912Z,54.90
2019-04-07T23:17:59.770Z,54.73
2019-04-07T23:20:37.515Z,54.23
2019-04-07T23:23:11.324Z,54.50
2019-04-07T23:25:44.995Z,51.67
2019-04-07T23:28:21.670Z,53.27
2019-04-07T23:30:55.408Z,54.93
2019-04-07T23:33:41.767Z,51.93
2019-04-07T23:36:15.740Z,43.83
2019-04-07T23:38:49.613Z,44.10
2019-04-07T23:41:23.425Z,47.97
2019-04-07T23:43:57.123Z,46.70
2019-04-07T23:46:43.546Z,43.70
2019-04-07T23:49:18.946Z,39.60
2019-04-07T23:51:53.193Z,42.43
2019-04-07T23:54:31.740Z,39.70
2019-04-07T23:57:05.951Z,43.93
2019-04-07T23:59:40.086Z,50.00
